createdAt,value
2023-02-15T00:00:18.494Z,2.79
2023-02-15T00:02:46.454Z,2.84
2023-02-15T00:05:14.154Z,2.89
2023-02-15T00:07:41.656Z,2.86
2023-02-15T00:10:10.269Z,2.82
2023-02-15T00:12:37.977Z,2.79
2023-02-15T00:15:05.808Z,2.81
2023-02-15T00:17:33.684Z,2.77
2023-02-15T00:20:01.333Z,2.71
2023-02-15T00:22:29.177Z,2.73
2023-02-15T00:24:56.839Z,2.68
2023-02-15T00:27:24.514Z,2.69
2023-02-15T00:29:52.282Z,2.69
2023-02-15T00:32:20.107Z,2.70
2023-02-15T00:34:48.130Z,2.65
2023-02-15T00:37:15.967Z,2.66
2023-02-15T00:39:48.297Z,2.63
2023-02-15T00:42:15.904Z,2.62
2023-02-15T00:44:43.586Z,2.60
2023-02-15T00:47:11.207Z,2.61
2023-02-15T00:49:39.008Z,2.52
2023-02-15T00:52:06.713Z,2.48
2023-02-15T00:54:35.601Z,2.46
2023-02-15T00:57:03.231Z,2.42
2023-02-15T00:59:30.809Z,2.38
2023-02-15T01:01:58.645Z,2.36
2023-02-15T01:04:26.288Z,2.38
2023-02-15T01:06:53.985Z,2.39
2023-02-15T01:09:21.689Z,2.37
2023-02-15T01:11:49.363Z,2.34
2023-02-15T01:14:16.975Z,2.23
2023-02-15T01:16:44.736Z,2.24
2023-02-15T01:19:13.201Z,2.33
2023-02-15T01:21:41.598Z,2.26
2023-02-15T01:24:15.477Z,2.28
2023-02-15T01:26:43.046Z,2.27
2023-02-15T01:29:10.655Z,2.14
2023-02-15T01:31:39.966Z,2.23
2023-02-15T01:34:08.224Z,2.20
2023-02-15T01:36:36.195Z,2.19
2023-02-15T01:39:03.933Z,2.19
2023-02-15T01:41:38.046Z,2.18
2023-02-15T01:44:43.924Z,2.14
2023-02-15T01:47:22.540Z,2.14
2023-02-15T01:50:01.562Z,2.08
2023-02-15T01:52:29.966Z,2.11
2023-02-15T01:54:58.694Z,2.08
2023-02-15T01:57:28.668Z,2.02
2023-02-15T02:00:03.344Z,2.03
2023-02-15T02:02:43.178Z,1.98
2023-02-15T02:05:11.639Z,1.98
2023-02-15T02:07:43.719Z,2.01
2023-02-15T02:10:16.902Z,2.00
2023-02-15T02:12:48.450Z,1.93
2023-02-15T02:15:17.182Z,1.87
2023-02-15T02:18:23.056Z,1.75
2023-02-15T02:21:30.659Z,1.87
2023-02-15T02:24:38.521Z,1.90
2023-02-15T02:27:31.021Z,1.89
2023-02-15T02:30:30.625Z,1.89
2023-02-15T02:33:36.889Z,1.87
2023-02-15T02:36:17.459Z,1.57
2023-02-15T02:39:15.113Z,1.54
2023-02-15T02:42:36.298Z,1.74
2023-02-15T02:45:45.527Z,1.80
2023-02-15T02:48:25.355Z,1.75
2023-02-15T02:50:53.104Z,1.82
2023-02-15T02:53:20.968Z,1.76
2023-02-15T02:55:53.908Z,1.69
2023-02-15T02:58:38.526Z,1.49
2023-02-15T03:01:18.067Z,1.49
2023-02-15T03:03:48.690Z,1.52
2023-02-15T03:06:45.564Z,1.29
2023-02-15T03:09:42.844Z,1.46
2023-02-15T03:12:17.575Z,1.51
2023-02-15T03:15:17.477Z,1.46
2023-02-15T03:17:52.425Z,1.44
2023-02-15T03:20:31.925Z,1.44
2023-02-15T03:23:14.199Z,1.47
2023-02-15T03:25:48.925Z,1.44
2023-02-15T03:28:52.729Z,1.42
2023-02-15T03:31:26.614Z,1.42
2023-02-15T03:34:01.773Z,1.32
2023-02-15T03:36:49.786Z,1.39
2023-02-15T03:39:42.572Z,1.35
2023-02-15T03:42:26.108Z,1.33
2023-02-15T03:45:19.970Z,1.37
2023-02-15T03:47:51.823Z,1.36
2023-02-15T03:50:46.558Z,1.27
2023-02-15T03:53:21.818Z,1.14
2023-02-15T03:55:54.755Z,1.11
2023-02-15T03:58:41.290Z,1.01
2023-02-15T04:01:44.716Z,0.94
2023-02-15T04:04:23.125Z,0.88
2023-02-15T04:06:52.974Z,0.86
2023-02-15T04:09:39.313Z,0.95
2023-02-15T04:12:07.191Z,1.21
2023-02-15T04:14:53.360Z,1.18
2023-02-15T04:17:21.351Z,1.17
2023-02-15T04:20:07.670Z,1.14
2023-02-15T04:22:54.512Z,1.17
2023-02-15T04:25:22.443Z,1.18
2023-02-15T04:27:54.337Z,1.18
2023-02-15T04:30:25.946Z,1.20
2023-02-15T04:32:55.032Z,1.20
2023-02-15T04:35:23.485Z,1.21
2023-02-15T04:37:51.282Z,1.17
2023-02-15T04:40:19.902Z,1.06
2023-02-15T04:42:51.197Z,1.10
2023-02-15T04:45:19.114Z,1.05
2023-02-15T04:47:46.848Z,1.06
2023-02-15T04:50:14.523Z,0.98
2023-02-15T04:52:42.337Z,0.99
2023-02-15T04:55:10.037Z,0.99
2023-02-15T04:57:37.885Z,0.94
2023-02-15T05:00:06.461Z,0.94
2023-02-15T05:02:35.094Z,0.76
2023-02-15T05:05:02.761Z,0.87
2023-02-15T05:07:30.398Z,0.82
2023-02-15T05:09:57.955Z,0.79
2023-02-15T05:12:25.663Z,0.58
2023-02-15T05:14:53.416Z,0.70
2023-02-15T05:17:21.102Z,0.45
2023-02-15T05:19:48.688Z,0.29
2023-02-15T05:22:16.399Z,0.59
2023-02-15T05:25:02.415Z,0.72
2023-02-15T05:27:49.351Z,0.68
2023-02-15T05:30:17.292Z,0.75
2023-02-15T05:32:44.995Z,0.73
2023-02-15T05:35:17.158Z,0.81
2023-02-15T05:37:45.135Z,0.71
2023-02-15T05:40:13.092Z,0.73
2023-02-15T05:42:40.768Z,0.74
2023-02-15T05:45:08.660Z,0.68
2023-02-15T05:47:36.225Z,0.74
2023-02-15T05:50:03.988Z,0.69
2023-02-15T05:52:31.763Z,0.76
2023-02-15T05:55:01.071Z,0.69
2023-02-15T05:57:29.160Z,0.66
2023-02-15T05:59:57.157Z,0.71
2023-02-15T06:02:29.708Z,0.48
2023-02-15T06:04:57.382Z,0.57
2023-02-15T06:07:25.029Z,0.40
2023-02-15T06:09:52.608Z,0.49
2023-02-15T06:12:20.230Z,0.57
2023-02-15T06:14:52.194Z,0.61
2023-02-15T06:17:19.852Z,0.42
2023-02-15T06:19:47.596Z,0.63
2023-02-15T06:22:15.298Z,0.69
2023-02-15T06:24:43.657Z,0.67
2023-02-15T06:27:11.849Z,0.58
2023-02-15T06:29:40.209Z,0.65
2023-02-15T06:32:11.352Z,0.67
2023-02-15T06:34:40.354Z,0.71
2023-02-15T06:37:09.363Z,0.67
2023-02-15T06:39:36.992Z,0.52
2023-02-15T06:42:04.940Z,0.33
2023-02-15T06:44:32.622Z,0.10
2023-02-15T06:47:00.130Z,0.05
2023-02-15T06:49:27.751Z,0.32
2023-02-15T06:51:55.353Z,0.28
2023-02-15T06:54:23.045Z,0.38
2023-02-15T06:56:50.810Z,0.42
2023-02-15T06:59:18.497Z,0.48
2023-02-15T07:01:46.345Z,0.17
2023-02-15T07:04:14.063Z,0.38
2023-02-15T07:06:41.793Z,0.41
2023-02-15T07:09:09.766Z,0.59
2023-02-15T07:11:55.757Z,0.59
2023-02-15T07:14:29.171Z,0.62
2023-02-15T07:16:56.902Z,0.50
2023-02-15T07:19:24.535Z,0.70
2023-02-15T07:21:52.096Z,0.76
2023-02-15T07:24:20.165Z,1.01
2023-02-15T07:26:47.773Z,0.43
2023-02-15T07:29:16.319Z,0.66
2023-02-15T07:31:46.289Z,0.52
2023-02-15T07:34:14.247Z,0.63
2023-02-15T07:36:42.138Z,0.92
2023-02-15T07:39:09.786Z,0.90
2023-02-15T07:41:38.034Z,0.81
2023-02-15T07:44:16.520Z,1.11
2023-02-15T07:46:44.210Z,1.25
2023-02-15T07:49:11.887Z,1.12
2023-02-15T07:51:39.538Z,1.40
2023-02-15T07:54:07.062Z,1.43
2023-02-15T07:56:37.032Z,1.56
2023-02-15T07:59:06.065Z,1.71
2023-02-15T08:01:49.233Z,1.66
2023-02-15T08:04:28.521Z,1.70
2023-02-15T08:07:01.408Z,1.66
2023-02-15T08:09:29.191Z,1.86
2023-02-15T08:11:56.705Z,1.84
2023-02-15T08:14:24.293Z,2.06
2023-02-15T08:16:58.185Z,1.94
2023-02-15T08:19:32.795Z,1.94
2023-02-15T08:22:11.113Z,2.19
2023-02-15T08:24:39.384Z,2.36
2023-02-15T08:27:13.390Z,2.36
2023-02-15T08:29:44.458Z,2.42
2023-02-15T08:32:15.356Z,2.28
2023-02-15T08:34:43.922Z,2.26
2023-02-15T08:37:11.572Z,2.48
2023-02-15T08:39:39.119Z,2.68
2023-02-15T08:42:06.786Z,2.50
2023-02-15T08:44:34.424Z,2.88
2023-02-15T08:47:06.358Z,2.45
2023-02-15T08:49:34.100Z,2.82
2023-02-15T08:52:01.757Z,3.23
2023-02-15T08:54:34.594Z,3.26
2023-02-15T08:57:06.160Z,3.42
2023-02-15T08:59:33.976Z,3.63
2023-02-15T09:02:12.247Z,3.77
2023-02-15T09:04:42.549Z,3.87
2023-02-15T09:07:10.161Z,3.97
2023-02-15T09:09:37.755Z,4.22
2023-02-15T09:12:05.684Z,4.32
2023-02-15T09:14:33.866Z,4.52
2023-02-15T09:17:01.951Z,4.54
2023-02-15T09:19:29.573Z,4.67
2023-02-15T09:21:57.248Z,4.68
2023-02-15T09:24:24.933Z,4.76
2023-02-15T09:26:52.531Z,4.99
2023-02-15T09:29:20.989Z,5.16
2023-02-15T09:31:51.602Z,5.25
2023-02-15T09:34:22.689Z,5.00
2023-02-15T09:36:52.396Z,5.44
2023-02-15T09:39:26.672Z,5.32
2023-02-15T09:42:21.871Z,5.45
2023-02-15T09:45:14.269Z,5.73
2023-02-15T09:48:16.177Z,5.86
2023-02-15T09:51:11.038Z,5.70
2023-02-15T09:54:01.957Z,5.77
2023-02-15T09:56:53.627Z,6.19
2023-02-15T09:59:28.145Z,6.55
2023-02-15T10:02:33.041Z,6.61
2023-02-15T10:05:23.104Z,6.49
2023-02-15T10:08:11.152Z,6.85
2023-02-15T10:11:34.597Z,7.00
2023-02-15T10:14:52.424Z,7.18
2023-02-15T10:17:41.880Z,7.33
2023-02-15T10:20:19.003Z,7.10
2023-02-15T10:23:18.163Z,7.10
2023-02-15T10:26:21.491Z,7.61
2023-02-15T10:29:10.924Z,7.97
2023-02-15T10:32:17.695Z,7.87
2023-02-15T10:35:09.242Z,7.38
2023-02-15T10:38:10.830Z,7.32
2023-02-15T10:41:01.831Z,7.28
2023-02-15T10:44:01.695Z,7.76
2023-02-15T10:46:59.786Z,8.05
2023-02-15T10:49:54.653Z,8.52
2023-02-15T10:52:39.031Z,8.58
2023-02-15T10:55:30.627Z,8.90
2023-02-15T10:58:12.229Z,8.80
2023-02-15T11:01:02.374Z,9.12
2023-02-15T11:04:01.294Z,9.42
2023-02-15T11:06:29.368Z,9.84
2023-02-15T11:09:09.202Z,10.03
2023-02-15T11:11:42.951Z,10.04
2023-02-15T11:15:08.811Z,10.18
2023-02-15T11:17:44.401Z,10.16
2023-02-15T11:20:43.489Z,10.39
2023-02-15T11:23:19.438Z,10.50
2023-02-15T11:25:59.589Z,10.57
2023-02-15T11:29:09.184Z,10.70
2023-02-15T11:32:05.637Z,10.80
2023-02-15T11:34:39.588Z,11.13
2023-02-15T11:37:13.056Z,11.38
2023-02-15T11:39:41.183Z,11.59
2023-02-15T11:42:15.446Z,11.41
2023-02-15T11:45:02.135Z,11.59
2023-02-15T11:47:31.566Z,11.82
2023-02-15T11:50:00.415Z,11.77
2023-02-15T11:52:28.125Z,11.93
2023-02-15T11:54:55.830Z,12.04
2023-02-15T11:57:43.561Z,11.89
2023-02-15T12:00:25.112Z,12.23
2023-02-15T12:02:56.537Z,12.47
2023-02-15T12:05:26.494Z,12.67
2023-02-15T12:08:19.149Z,12.82
2023-02-15T12:11:04.457Z,13.07
2023-02-15T12:13:32.312Z,13.46
2023-02-15T12:16:09.915Z,13.63
2023-02-15T12:18:45.695Z,13.88
2023-02-15T12:21:31.626Z,14.05
2023-02-15T12:24:13.515Z,13.90
2023-02-15T12:26:41.793Z,13.97
2023-02-15T12:29:18.644Z,13.53
2023-02-15T12:31:51.443Z,13.42
2023-02-15T12:34:43.795Z,13.52
2023-02-15T12:37:20.440Z,14.23
2023-02-15T12:40:00.910Z,14.58
2023-02-15T12:42:42.892Z,15.16
2023-02-15T12:45:34.165Z,16.11
2023-02-15T12:48:19.609Z,16.74
2023-02-15T12:50:55.271Z,16.72
2023-02-15T12:53:36.233Z,16.41
2023-02-15T12:56:10.539Z,16.67
2023-02-15T12:58:40.817Z,17.32
2023-02-15T13:01:14.160Z,17.76
2023-02-15T13:04:05.979Z,18.43
2023-02-15T13:06:48.910Z,18.90
2023-02-15T13:09:39.651Z,19.19
2023-02-15T13:12:30.001Z,19.65
2023-02-15T13:14:58.300Z,20.10
2023-02-15T13:17:32.044Z,19.69
2023-02-15T13:20:09.676Z,20.23
2023-02-15T13:22:44.523Z,20.47
2023-02-15T13:25:24.692Z,20.41
2023-02-15T13:28:02.886Z,19.74
2023-02-15T13:30:36.261Z,20.61
2023-02-15T13:33:07.708Z,21.24
2023-02-15T13:36:19.192Z,21.61
2023-02-15T13:39:14.465Z,22.05
2023-02-15T13:42:03.276Z,22.52
2023-02-15T13:44:52.966Z,22.23
2023-02-15T13:47:38.732Z,22.14
2023-02-15T13:50:30.312Z,22.46
2023-02-15T13:53:42.601Z,22.43
2023-02-15T13:56:27.657Z,22.44
2023-02-15T13:59:57.048Z,23.19
2023-02-15T14:03:11.314Z,23.39
2023-02-15T14:06:04.365Z,22.62
2023-02-15T14:09:23.570Z,23.10
2023-02-15T14:12:42.492Z,23.89
2023-02-15T14:15:46.970Z,23.70
2023-02-15T14:18:30.062Z,24.00
2023-02-15T14:21:19.916Z,24.20
2023-02-15T14:23:54.885Z,23.14
2023-02-15T14:26:46.387Z,23.42
2023-02-15T14:29:51.639Z,23.23
2023-02-15T14:32:33.675Z,24.21
2023-02-15T14:35:04.978Z,23.53
2023-02-15T14:38:12.377Z,24.01
2023-02-15T14:41:08.148Z,24.35
2023-02-15T14:44:21.010Z,23.88
2023-02-15T14:46:51.378Z,23.41
2023-02-15T14:49:26.402Z,23.59
2023-02-15T14:52:03.597Z,24.09
2023-02-15T14:54:33.537Z,24.07
2023-02-15T14:57:04.449Z,24.50
2023-02-15T14:59:53.370Z,25.17
2023-02-15T15:02:28.906Z,24.97
2023-02-15T15:05:03.940Z,24.53
2023-02-15T15:07:39.547Z,24.06
2023-02-15T15:10:18.600Z,23.45
2023-02-15T15:12:54.141Z,23.52
2023-02-15T15:15:31.111Z,23.14
2023-02-15T15:18:01.768Z,22.69
2023-02-15T15:20:47.896Z,22.29
2023-02-15T15:23:17.873Z,22.54
2023-02-15T15:26:22.426Z,21.94
2023-02-15T15:28:49.430Z,21.94
2023-02-15T15:31:48.481Z,21.70
2023-02-15T15:34:44.447Z,22.52
2023-02-15T15:38:27.400Z,22.52
2023-02-15T15:41:07.020Z,21.57
2023-02-15T15:44:34.529Z,21.12
2023-02-15T15:47:32.810Z,20.86
2023-02-15T15:50:01.077Z,20.03
2023-02-15T15:52:32.416Z,20.26
2023-02-15T15:55:18.105Z,19.94
2023-02-15T15:57:51.505Z,20.43
2023-02-15T16:00:52.225Z,20.54
2023-02-15T16:03:29.333Z,20.52
2023-02-15T16:06:01.069Z,20.16
2023-02-15T16:08:36.055Z,19.57
2023-02-15T16:11:23.662Z,19.04
2023-02-15T16:13:52.157Z,18.40
2023-02-15T16:16:29.915Z,17.75
2023-02-15T16:19:00.880Z,17.21
2023-02-15T16:21:36.375Z,16.64
2023-02-15T16:24:45.156Z,15.98
2023-02-15T16:27:29.016Z,15.55
2023-02-15T16:29:56.767Z,15.10
2023-02-15T16:32:28.063Z,14.68
2023-02-15T16:35:03.125Z,14.10
2023-02-15T16:37:36.226Z,13.94
2023-02-15T16:40:04.523Z,13.68
2023-02-15T16:42:32.397Z,13.40
2023-02-15T16:45:13.389Z,13.21
2023-02-15T16:47:48.052Z,13.00
2023-02-15T16:50:31.184Z,12.80
2023-02-15T16:52:59.466Z,12.59
2023-02-15T16:55:42.052Z,12.53
2023-02-15T16:58:18.753Z,12.50
2023-02-15T17:00:46.942Z,12.48
2023-02-15T17:03:14.574Z,12.47
2023-02-15T17:05:52.992Z,12.31
2023-02-15T17:08:44.963Z,12.15
2023-02-15T17:11:21.195Z,12.06
2023-02-15T17:14:07.752Z,11.91
2023-02-15T17:16:42.894Z,11.89
2023-02-15T17:19:43.996Z,11.76
2023-02-15T17:22:25.277Z,11.69
2023-02-15T17:25:05.461Z,11.56
2023-02-15T17:27:36.084Z,11.31
2023-02-15T17:30:18.765Z,11.30
2023-02-15T17:33:04.655Z,11.19
2023-02-15T17:35:39.202Z,11.10
2023-02-15T17:38:21.701Z,11.04
2023-02-15T17:40:49.364Z,10.86
2023-02-15T17:43:17.070Z,10.63
2023-02-15T17:45:52.444Z,10.69
2023-02-15T17:48:32.812Z,10.29
2023-02-15T17:51:04.587Z,10.28
2023-02-15T17:53:34.074Z,10.26
2023-02-15T17:56:10.231Z,10.17
2023-02-15T17:58:40.549Z,10.02
2023-02-15T18:01:35.761Z,9.73
2023-02-15T18:04:21.842Z,9.70
2023-02-15T18:07:13.105Z,9.83
2023-02-15T18:10:01.925Z,9.62
2023-02-15T18:12:33.017Z,9.66
2023-02-15T18:15:01.596Z,9.38
2023-02-15T18:17:34.802Z,9.41
2023-02-15T18:20:20.041Z,9.38
2023-02-15T18:22:48.427Z,9.29
2023-02-15T18:25:20.284Z,9.26
2023-02-15T18:27:51.641Z,9.18
2023-02-15T18:30:24.014Z,9.18
2023-02-15T18:32:56.700Z,9.12
2023-02-15T18:35:31.169Z,9.09
2023-02-15T18:38:02.168Z,9.04
2023-02-15T18:40:30.507Z,8.94
2023-02-15T18:42:58.400Z,8.90
2023-02-15T18:45:35.921Z,8.83
2023-02-15T18:48:04.493Z,8.78
2023-02-15T18:50:37.316Z,8.72
2023-02-15T18:53:15.548Z,8.69
2023-02-15T18:55:49.677Z,8.36
2023-02-15T18:58:23.731Z,8.36
2023-02-15T19:00:52.812Z,8.27
2023-02-15T19:03:20.704Z,8.19
2023-02-15T19:05:48.628Z,7.94
2023-02-15T19:08:23.159Z,8.11
2023-02-15T19:10:51.844Z,7.87
2023-02-15T19:13:19.786Z,7.62
2023-02-15T19:15:47.379Z,7.61
2023-02-15T19:18:15.579Z,7.69
2023-02-15T19:20:46.835Z,7.68
2023-02-15T19:23:21.954Z,7.64
2023-02-15T19:25:52.248Z,7.66
2023-02-15T19:28:31.011Z,7.58
2023-02-15T19:30:58.760Z,7.60
2023-02-15T19:33:26.370Z,7.52
2023-02-15T19:35:57.328Z,7.25
2023-02-15T19:38:31.017Z,7.24
2023-02-15T19:41:05.010Z,7.07
2023-02-15T19:43:34.088Z,7.26
2023-02-15T19:46:02.105Z,7.07
2023-02-15T19:48:30.120Z,6.94
2023-02-15T19:50:58.221Z,6.94
2023-02-15T19:53:28.705Z,6.84
2023-02-15T19:55:56.663Z,6.62
2023-02-15T19:58:24.670Z,6.72
2023-02-15T20:00:52.614Z,6.50
2023-02-15T20:03:20.493Z,6.51
2023-02-15T20:05:48.220Z,6.40
2023-02-15T20:08:21.041Z,6.42
2023-02-15T20:10:49.207Z,6.23
2023-02-15T20:13:19.113Z,6.43
2023-02-15T20:15:48.082Z,6.51
2023-02-15T20:18:15.850Z,6.48
2023-02-15T20:20:47.337Z,6.32
2023-02-15T20:23:27.392Z,6.21
2023-02-15T20:26:00.873Z,6.10
2023-02-15T20:28:31.786Z,5.99
2023-02-15T20:31:00.809Z,6.02
2023-02-15T20:33:28.625Z,5.96
2023-02-15T20:35:56.315Z,6.08
2023-02-15T20:38:28.128Z,6.15
2023-02-15T20:41:17.373Z,6.12
2023-02-15T20:43:45.302Z,6.08
2023-02-15T20:46:12.949Z,5.95
2023-02-15T20:48:40.623Z,6.04
2023-02-15T20:51:20.357Z,6.00
2023-02-15T20:53:49.122Z,5.99
2023-02-15T20:56:27.682Z,5.96
2023-02-15T20:58:55.537Z,5.96
2023-02-15T21:01:23.179Z,5.91
2023-02-15T21:03:51.406Z,5.89
2023-02-15T21:06:19.527Z,5.80
2023-02-15T21:08:47.206Z,5.81
2023-02-15T21:11:23.128Z,5.70
2023-02-15T21:13:51.321Z,5.72
2023-02-15T21:16:19.222Z,5.79
2023-02-15T21:18:46.837Z,5.68
2023-02-15T21:21:23.740Z,5.55
2023-02-15T21:23:53.677Z,5.51
2023-02-15T21:26:23.169Z,5.43
2023-02-15T21:28:51.623Z,5.38
2023-02-15T21:31:23.868Z,5.34
2023-02-15T21:33:54.718Z,5.34
2023-02-15T21:36:25.124Z,5.41
2023-02-15T21:38:53.825Z,5.29
2023-02-15T21:41:42.855Z,5.36
2023-02-15T21:44:47.250Z,5.24
2023-02-15T21:47:51.222Z,5.16
2023-02-15T21:50:56.513Z,5.25
2023-02-15T21:53:35.895Z,5.16
2023-02-15T21:56:05.899Z,5.21
2023-02-15T21:58:36.578Z,5.22
2023-02-15T22:01:05.411Z,5.20
2023-02-15T22:03:36.972Z,5.16
2023-02-15T22:06:06.040Z,5.10
2023-02-15T22:08:34.626Z,4.61
2023-02-15T22:11:02.661Z,3.86
2023-02-15T22:13:34.005Z,3.98
2023-02-15T22:16:03.291Z,4.30
2023-02-15T22:18:34.033Z,4.48
2023-02-15T22:21:02.648Z,4.54
2023-02-15T22:23:31.083Z,4.57
2023-02-15T22:26:11.433Z,4.48
2023-02-15T22:28:41.294Z,4.43
2023-02-15T22:31:19.410Z,4.23
2023-02-15T22:33:49.821Z,4.28
2023-02-15T22:36:29.009Z,4.40
2023-02-15T22:38:58.255Z,4.46
2023-02-15T22:41:30.295Z,4.52
2023-02-15T22:44:03.764Z,4.55
2023-02-15T22:46:31.328Z,4.55
2023-02-15T22:48:58.943Z,4.45
2023-02-15T22:51:26.888Z,4.25
2023-02-15T22:53:54.666Z,4.41
2023-02-15T22:56:52.973Z,4.38
2023-02-15T22:59:26.126Z,4.38
2023-02-15T23:01:54.967Z,4.26
2023-02-15T23:04:27.364Z,4.05
2023-02-15T23:06:58.241Z,4.19
2023-02-15T23:09:26.152Z,4.09
2023-02-15T23:11:54.375Z,4.13
2023-02-15T23:14:31.681Z,4.21
2023-02-15T23:17:04.957Z,4.18
2023-02-15T23:19:32.498Z,4.22
2023-02-15T23:22:00.084Z,4.11
2023-02-15T23:24:30.580Z,4.21
2023-02-15T23:27:18.970Z,4.14
2023-02-15T23:29:46.959Z,4.08
2023-02-15T23:32:15.796Z,4.04
2023-02-15T23:34:43.922Z,4.00
2023-02-15T23:37:15.670Z,3.97
2023-02-15T23:40:01.870Z,3.83
2023-02-15T23:42:32.157Z,3.82
2023-02-15T23:45:00.169Z,3.90
2023-02-15T23:47:54.811Z,3.90
2023-02-15T23:50:30.064Z,3.88
2023-02-15T23:52:58.481Z,3.90
2023-02-15T23:55:36.109Z,3.90
2023-02-15T23:58:15.011Z,3.86
